createdAt,value
2017-09-01T00:01:05.911Z,16.09
2017-09-01T00:02:16.111Z,16.06
2017-09-01T00:03:26.393Z,16.09
2017-09-01T00:04:36.662Z,16.09
2017-09-01T00:05:46.929Z,16.06
2017-09-01T00:06:56.892Z,16.1
2017-09-01T00:08:07.105Z,16.05
2017-09-01T00:09:16.735Z,16.03
2017-09-01T00:10:26.750Z,15.94
2017-09-01T00:11:37.026Z,15.98
2017-09-01T00:12:47.291Z,16.06
2017-09-01T00:13:57.489Z,15.94
2017-09-01T00:15:07.797Z,16.05
2017-09-01T00:16:18.075Z,16.03
2017-09-01T00:17:28.350Z,16.02
2017-09-01T00:18:38.625Z,16.05
2017-09-01T00:19:49.153Z,15.9
2017-09-01T00:20:58.799Z,16.02
2017-09-01T00:22:08.754Z,15.98
2017-09-01T00:23:19.027Z,15.94
2017-09-01T00:24:29.008Z,15.83
2017-09-01T00:25:39.541Z,15.84
2017-09-01T00:26:49.824Z,15.84
2017-09-01T00:27:59.777Z,15.88
2017-09-01T00:29:10.148Z,15.88
2017-09-01T00:30:20.109Z,15.85
2017-09-01T00:31:30.639Z,15.81
2017-09-01T00:32:40.909Z,15.83
2017-09-01T00:33:50.868Z,15.83
2017-09-01T00:35:01.141Z,15.81
2017-09-01T00:36:11.112Z,15.72
2017-09-01T00:37:21.659Z,15.73
2017-09-01T00:38:31.637Z,15.76
2017-09-01T00:39:41.918Z,15.73
2017-09-01T00:40:52.211Z,15.73
2017-09-01T00:42:02.488Z,15.63
2017-09-01T00:43:12.751Z,15.65
2017-09-01T00:44:23.029Z,15.63
2017-09-01T00:45:33.310Z,15.62
2017-09-01T00:46:42.948Z,15.59
2017-09-01T00:47:52.602Z,15.63
2017-09-01T00:49:03.124Z,15.57
2017-09-01T00:50:13.070Z,15.55
2017-09-01T00:51:23.336Z,15.48
2017-09-01T00:52:33.617Z,15.54
2017-09-01T00:53:43.587Z,15.45
2017-09-01T00:54:54.101Z,15.43
2017-09-01T00:56:03.745Z,15.48
2017-09-01T00:57:13.999Z,15.48
2017-09-01T00:58:24.281Z,15.45
2017-09-01T00:59:34.552Z,15.45
2017-09-01T01:00:44.449Z,15.33
2017-09-01T01:01:54.739Z,15.36
2017-09-01T01:03:05.060Z,15.41
2017-09-01T01:04:15.353Z,15.37
2017-09-01T01:05:25.626Z,15.33
2017-09-01T01:06:36.150Z,15.33
2017-09-01T01:07:46.126Z,15.41
2017-09-01T01:08:56.081Z,15.41
2017-09-01T01:10:05.726Z,15.45
2017-09-01T01:11:16.016Z,15.35
2017-09-01T01:12:26.533Z,15.35
2017-09-01T01:13:36.525Z,15.41
2017-09-01T01:14:46.809Z,15.44
2017-09-01T01:15:57.089Z,15.41
2017-09-01T01:17:07.364Z,15.33
2017-09-01T01:18:17.567Z,15.33
2017-09-01T01:19:27.837Z,15.22
2017-09-01T01:20:38.134Z,15.29
2017-09-01T01:21:48.427Z,15.25
2017-09-01T01:22:58.709Z,15.25
2017-09-01T01:24:08.952Z,15.27
2017-09-01T01:25:19.230Z,15.22
2017-09-01T01:26:29.525Z,15.22
2017-09-01T01:27:39.801Z,15.22
2017-09-01T01:28:49.760Z,15.27
2017-09-01T01:29:59.994Z,15.25
2017-09-01T01:31:10.294Z,15.25
2017-09-01T01:32:20.241Z,15.19
2017-09-01T01:33:30.508Z,15.15
2017-09-01T01:34:40.777Z,15.18
2017-09-01T01:35:50.993Z,15.15
2017-09-01T01:37:00.941Z,15.18
2017-09-01T01:38:11.206Z,15.22
2017-09-01T01:39:21.482Z,15.17
2017-09-01T01:40:31.126Z,15.15
2017-09-01T01:41:41.656Z,15.23
2017-09-01T01:42:51.935Z,15.23
2017-09-01T01:44:02.208Z,15.15
2017-09-01T01:45:12.177Z,15.18
2017-09-01T01:46:22.462Z,15.23
2017-09-01T01:47:33.003Z,15.19
2017-09-01T01:48:42.955Z,15.22
2017-09-01T01:49:53.241Z,15.14
2017-09-01T01:51:03.510Z,15.19
2017-09-01T01:52:13.789Z,15.18
2017-09-01T01:53:24.324Z,15.17
2017-09-01T01:54:34.621Z,15.19
2017-09-01T01:55:44.567Z,15.17
2017-09-01T01:56:54.528Z,15.14
2017-09-01T01:58:04.806Z,15.17
2017-09-01T01:59:14.997Z,15.1
2017-09-01T02:00:24.962Z,15.1
2017-09-01T02:01:35.235Z,15.18
2017-09-01T02:02:45.519Z,15.11
2017-09-01T02:03:55.166Z,15.11
2017-09-01T02:05:05.685Z,15
2017-09-01T02:06:15.658Z,15.07
2017-09-01T02:07:25.942Z,15.04
2017-09-01T02:08:36.227Z,15.02
2017-09-01T02:09:46.512Z,15.05
2017-09-01T02:10:57.025Z,15.04
2017-09-01T02:12:07.293Z,14.93
2017-09-01T02:13:17.259Z,15.02
2017-09-01T02:14:27.516Z,15
2017-09-01T02:15:37.485Z,14.89
2017-09-01T02:16:48.018Z,14.94
2017-09-01T02:17:57.979Z,15
2017-09-01T02:19:08.250Z,14.96
2017-09-01T02:20:18.527Z,14.99
2017-09-01T02:21:28.817Z,14.97
2017-09-01T02:22:39.336Z,14.82
2017-09-01T02:23:49.616Z,14.89
2017-09-01T02:24:59.897Z,14.9
2017-09-01T02:26:10.174Z,14.89
2017-09-01T02:27:20.130Z,14.77
2017-09-01T02:28:30.351Z,14.85
2017-09-01T02:29:40.298Z,14.77
2017-09-01T02:30:50.572Z,14.71
2017-09-01T02:32:00.862Z,14.77
2017-09-01T02:33:11.140Z,14.79
2017-09-01T02:34:21.677Z,14.85
2017-09-01T02:35:31.963Z,14.74
2017-09-01T02:36:41.927Z,14.77
2017-09-01T02:37:52.189Z,14.66
2017-09-01T02:39:02.478Z,14.7
2017-09-01T02:40:13.004Z,14.7
2017-09-01T02:41:23.274Z,14.62
2017-09-01T02:42:33.218Z,14.63
2017-09-01T02:43:43.512Z,14.61
2017-09-01T02:44:53.777Z,14.58
2017-09-01T02:46:04.292Z,14.59
2017-09-01T02:47:14.236Z,14.52
2017-09-01T02:48:24.196Z,14.55
2017-09-01T02:49:34.493Z,14.49
2017-09-01T02:50:44.774Z,14.52
2017-09-01T02:51:55.307Z,14.48
2017-09-01T02:53:05.612Z,14.45
2017-09-01T02:54:15.552Z,14.41
2017-09-01T02:55:25.837Z,14.49
2017-09-01T02:56:36.136Z,14.36
2017-09-01T02:57:46.654Z,14.33
2017-09-01T02:58:56.920Z,14.37
2017-09-01T03:00:07.186Z,14.3
2017-09-01T03:01:17.146Z,14.26
2017-09-01T03:02:27.105Z,14.28
2017-09-01T03:03:37.649Z,14.26
2017-09-01T03:04:47.596Z,14.25
2017-09-01T03:05:57.544Z,14.26
2017-09-01T03:07:07.821Z,14.23
2017-09-01T03:08:17.782Z,14.22
2017-09-01T03:09:28.307Z,14.23
2017-09-01T03:10:38.285Z,14.23
2017-09-01T03:11:48.566Z,14.15
2017-09-01T03:12:58.521Z,14.15
2017-09-01T03:14:08.802Z,14.12
2017-09-01T03:15:19.010Z,14.07
2017-09-01T03:16:29.297Z,14.12
2017-09-01T03:17:39.269Z,14.05
2017-09-01T03:18:49.548Z,14.04
2017-09-01T03:19:59.496Z,14.07
2017-09-01T03:21:09.715Z,14.13
2017-09-01T03:22:19.710Z,14.05
2017-09-01T03:23:29.360Z,14.01
2017-09-01T03:24:39.742Z,14
2017-09-01T03:25:50.018Z,14.04
2017-09-01T03:27:00.279Z,13.97
2017-09-01T03:28:10.235Z,13.98
2017-09-01T03:29:20.509Z,13.98
2017-09-01T03:30:29.845Z,14.01
2017-09-01T03:31:39.509Z,13.94
2017-09-01T03:32:50.076Z,13.94
2017-09-01T03:34:00.037Z,13.95
2017-09-01T03:35:09.992Z,14.01
2017-09-01T03:36:20.262Z,13.98
2017-09-01T03:37:30.552Z,14
2017-09-01T03:38:41.072Z,13.98
2017-09-01T03:39:51.357Z,13.97
2017-09-01T03:41:01.624Z,13.94
2017-09-01T03:42:11.894Z,13.98
2017-09-01T03:43:21.866Z,13.83
2017-09-01T03:44:31.777Z,13.87
2017-09-01T03:45:41.737Z,13.91
2017-09-01T03:46:51.695Z,13.89
2017-09-01T03:48:01.975Z,13.85
2017-09-01T03:49:11.936Z,13.94
2017-09-01T03:50:22.169Z,13.85
2017-09-01T03:51:32.137Z,13.87
2017-09-01T03:52:42.411Z,13.86
2017-09-01T03:53:52.713Z,13.82
2017-09-01T03:55:02.143Z,13.78
2017-09-01T03:56:12.675Z,13.78
2017-09-01T03:57:22.636Z,13.78
2017-09-01T03:58:32.897Z,13.83
2017-09-01T03:59:43.177Z,13.76
2017-09-01T04:00:53.455Z,13.73
2017-09-01T04:02:03.972Z,13.78
2017-09-01T04:03:14.234Z,13.76
2017-09-01T04:04:24.193Z,13.76
2017-09-01T04:05:34.495Z,13.71
2017-09-01T04:06:44.772Z,13.75
2017-09-01T04:07:55.316Z,13.73
2017-09-01T04:09:05.591Z,13.76
2017-09-01T04:10:15.549Z,13.8
2017-09-01T04:11:25.512Z,13.76
2017-09-01T04:12:35.785Z,13.82
2017-09-01T04:13:46.339Z,13.67
2017-09-01T04:14:56.297Z,13.73
2017-09-01T04:16:06.565Z,13.65
2017-09-01T04:17:16.193Z,13.62
2017-09-01T04:18:26.458Z,13.64
2017-09-01T04:19:36.667Z,13.65
2017-09-01T04:20:46.937Z,13.64
2017-09-01T04:21:57.208Z,13.71
2017-09-01T04:23:07.155Z,13.65
2017-09-01T04:24:17.114Z,13.68
2017-09-01T04:25:27.388Z,13.61
2017-09-01T04:26:37.351Z,13.71
2017-09-01T04:27:47.290Z,13.62
2017-09-01T04:28:57.577Z,13.64
2017-09-01T04:30:07.547Z,13.65
2017-09-01T04:31:17.763Z,13.68
2017-09-01T04:32:28.039Z,13.71
2017-09-01T04:33:37.987Z,13.61
2017-09-01T04:34:47.964Z,13.62
2017-09-01T04:35:57.935Z,13.65
2017-09-01T04:37:08.478Z,13.65
2017-09-01T04:38:18.431Z,13.68
2017-09-01T04:39:28.708Z,13.71
2017-09-01T04:40:38.985Z,13.61
2017-09-01T04:41:49.244Z,13.67
2017-09-01T04:42:59.125Z,13.61
2017-09-01T04:44:08.463Z,13.65
2017-09-01T04:45:18.756Z,13.65
2017-09-01T04:46:29.026Z,13.68
2017-09-01T04:47:38.970Z,13.7
2017-09-01T04:48:49.180Z,13.64
2017-09-01T04:49:59.138Z,13.62
2017-09-01T04:51:09.420Z,13.67
2017-09-01T04:52:19.066Z,13.62
2017-09-01T04:53:29.357Z,13.64
2017-09-01T04:54:39.585Z,13.62
2017-09-01T04:55:49.866Z,13.68
2017-09-01T04:57:00.134Z,13.61
2017-09-01T04:58:10.441Z,13.75
2017-09-01T04:59:20.396Z,13.61
2017-09-01T05:00:30.612Z,13.65
2017-09-01T05:01:40.590Z,13.65
2017-09-01T05:02:50.552Z,13.65
2017-09-01T05:04:00.520Z,13.76
2017-09-01T05:05:10.472Z,13.7
2017-09-01T05:06:21.002Z,13.78
2017-09-01T05:07:31.261Z,13.76
2017-09-01T05:08:41.523Z,13.76
2017-09-01T05:09:51.800Z,13.73
2017-09-01T05:11:02.070Z,13.73
2017-09-01T05:12:11.970Z,13.76
2017-09-01T05:13:21.624Z,13.76
2017-09-01T05:14:31.888Z,13.76
2017-09-01T05:15:42.175Z,13.76
2017-09-01T05:16:52.459Z,13.76
2017-09-01T05:18:02.986Z,13.87
2017-09-01T05:19:13.269Z,13.78
2017-09-01T05:20:23.226Z,13.83
2017-09-01T05:21:33.496Z,13.91
2017-09-01T05:22:43.466Z,13.94
2017-09-01T05:23:54.023Z,13.86
2017-09-01T05:25:04.329Z,13.86
2017-09-01T05:26:14.301Z,13.87
2017-09-01T05:27:23.948Z,13.98
2017-09-01T05:28:34.226Z,13.94
2017-09-01T05:29:44.421Z,14.01
2017-09-01T05:30:54.397Z,13.91
2017-09-01T05:32:04.681Z,13.97
2017-09-01T05:33:14.320Z,13.95
2017-09-01T05:34:24.284Z,14
2017-09-01T05:35:34.495Z,14.04
2017-09-01T05:36:44.452Z,13.95
2017-09-01T05:37:54.409Z,14.05
2017-09-01T05:39:04.688Z,13.95
2017-09-01T05:40:14.978Z,14.01
2017-09-01T05:41:25.525Z,13.94
2017-09-01T05:42:35.807Z,14.05
2017-09-01T05:43:46.078Z,14.05
2017-09-01T05:44:56.035Z,14.03
2017-09-01T05:46:05.993Z,14.05
2017-09-01T05:47:16.581Z,14.07
2017-09-01T05:48:26.871Z,14.13
2017-09-01T05:49:36.822Z,14.15
2017-09-01T05:50:47.122Z,14.2
2017-09-01T05:51:57.072Z,14.19
2017-09-01T05:53:07.606Z,14.19
2017-09-01T05:54:17.882Z,14.28
2017-09-01T05:55:28.203Z,14.26
2017-09-01T05:56:38.471Z,14.23
2017-09-01T05:57:48.140Z,14.28
2017-09-01T05:58:58.672Z,14.3
2017-09-01T06:00:08.952Z,14.25
2017-09-01T06:01:19.240Z,14.33
2017-09-01T06:02:29.522Z,14.36
2017-09-01T06:03:39.809Z,14.3
2017-09-01T06:04:50.348Z,14.41
2017-09-01T06:06:00.644Z,14.43
2017-09-01T06:07:10.928Z,14.43
2017-09-01T06:08:21.232Z,14.48
2017-09-01T06:09:31.522Z,14.48
2017-09-01T06:10:42.053Z,14.58
2017-09-01T06:11:52.352Z,14.61
2017-09-01T06:13:02.308Z,14.55
2017-09-01T06:14:12.284Z,14.55
2017-09-01T06:15:22.556Z,14.62
2017-09-01T06:16:33.075Z,14.63
2017-09-01T06:17:43.039Z,14.63
2017-09-01T06:18:53.318Z,14.63
2017-09-01T06:20:03.293Z,14.61
2017-09-01T06:21:13.601Z,14.62
2017-09-01T06:22:24.111Z,14.61
2017-09-01T06:23:34.068Z,14.77
2017-09-01T06:24:44.050Z,14.78
2017-09-01T06:25:54.023Z,14.78
2017-09-01T06:27:04.294Z,14.71
2017-09-01T06:28:14.495Z,14.87
2017-09-01T06:29:24.780Z,14.86
2017-09-01T06:30:35.141Z,14.9
2017-09-01T06:31:45.509Z,14.94
2017-09-01T06:32:55.537Z,14.97
2017-09-01T06:34:05.449Z,15.05
2017-09-01T06:35:15.717Z,15.14
2017-09-01T06:36:26.051Z,15.1
2017-09-01T06:37:35.394Z,15.14
2017-09-01T06:38:45.379Z,15.12
2017-09-01T06:39:55.620Z,15.22
2017-09-01T06:41:05.922Z,15.12
2017-09-01T06:42:16.215Z,15.23
2017-09-01T06:43:26.210Z,15.26
2017-09-01T06:44:36.528Z,15.35
2017-09-01T06:45:46.760Z,15.37
2017-09-01T06:46:56.721Z,15.37
2017-09-01T06:48:07.021Z,15.45
2017-09-01T06:49:17.292Z,15.48
2017-09-01T06:50:27.548Z,15.41
2017-09-01T06:51:38.114Z,15.43
2017-09-01T06:52:48.086Z,15.48
2017-09-01T06:53:58.375Z,15.48
2017-09-01T06:55:08.329Z,15.43
2017-09-01T06:56:18.812Z,15.52
2017-09-01T06:57:29.351Z,15.54
2017-09-01T06:58:40.587Z,15.55
2017-09-01T06:59:50.569Z,15.6
2017-09-01T07:01:00.862Z,15.6
2017-09-01T07:02:10.532Z,15.69
2017-09-01T07:03:21.071Z,15.63
2017-09-01T07:04:30.717Z,15.65
2017-09-01T07:05:40.669Z,15.66
2017-09-01T07:06:50.958Z,15.69
2017-09-01T07:08:00.905Z,15.59
2017-09-01T07:09:11.114Z,15.45
2017-09-01T07:10:21.375Z,15.5
2017-09-01T07:11:31.669Z,15.52
2017-09-01T07:12:41.943Z,15.62
2017-09-01T07:13:52.447Z,15.57
2017-09-01T07:15:02.802Z,15.66
2017-09-01T07:16:13.084Z,15.73
2017-09-01T07:17:23.799Z,15.67
2017-09-01T07:18:34.090Z,15.73
2017-09-01T07:19:44.374Z,15.75
2017-09-01T07:20:54.593Z,15.85
2017-09-01T07:22:04.869Z,15.84
2017-09-01T07:23:15.145Z,15.99
2017-09-01T07:24:25.427Z,16.08
2017-09-01T07:25:35.416Z,16.03
2017-09-01T07:26:45.330Z,16.06
2017-09-01T07:27:54.969Z,16
2017-09-01T07:29:05.263Z,16.09
2017-09-01T07:30:15.225Z,16.13
2017-09-01T07:31:25.534Z,16.22
2017-09-01T07:32:36.064Z,16.25
2017-09-01T07:33:46.337Z,16.26
2017-09-01T07:34:56.602Z,16.39
2017-09-01T07:36:06.894Z,16.41
2017-09-01T07:37:17.171Z,16.62
2017-09-01T07:38:27.390Z,16.61
2017-09-01T07:39:37.033Z,16.79
2017-09-01T07:40:47.322Z,16.99
2017-09-01T07:41:57.334Z,17.01
2017-09-01T07:43:07.620Z,17.1
2017-09-01T07:44:18.160Z,17.16
2017-09-01T07:45:28.456Z,17.14
2017-09-01T07:46:38.758Z,17.13
2017-09-01T07:47:49.046Z,17.12
2017-09-01T07:48:59.338Z,16.99
2017-09-01T07:50:09.858Z,17.04
2017-09-01T07:51:19.823Z,16.98
2017-09-01T07:52:29.800Z,17.14
2017-09-01T07:53:40.081Z,17.12
2017-09-01T07:54:50.369Z,17.2
2017-09-01T07:56:00.907Z,17.16
2017-09-01T07:57:10.890Z,17.2
2017-09-01T07:58:21.183Z,17.34
2017-09-01T07:59:31.178Z,17.5
2017-09-01T08:00:41.156Z,17.54
2017-09-01T08:01:51.683Z,17.69
2017-09-01T08:03:01.008Z,17.84
2017-09-01T08:04:10.655Z,17.94
2017-09-01T08:05:20.699Z,18.02
2017-09-01T08:06:30.998Z,18.12
2017-09-01T08:07:41.206Z,18.27
2017-09-01T08:08:51.491Z,18.23
2017-09-01T08:10:01.465Z,18.15
2017-09-01T08:11:11.449Z,18.13
2017-09-01T08:12:21.412Z,18.24
2017-09-01T08:13:31.970Z,18.39
2017-09-01T08:14:42.253Z,18.53
2017-09-01T08:15:52.212Z,18.76
2017-09-01T08:17:02.514Z,18.83
2017-09-01T08:18:12.806Z,18.85
2017-09-01T08:19:23.391Z,18.91
2017-09-01T08:20:33.674Z,18.85
2017-09-01T08:21:43.929Z,18.76
2017-09-01T08:22:54.221Z,18.83
2017-09-01T08:24:04.516Z,18.85
2017-09-01T08:25:15.071Z,18.92
2017-09-01T08:26:25.365Z,19.2
2017-09-01T08:27:35.061Z,19.32
2017-09-01T08:28:45.371Z,19.47
2017-09-01T08:29:55.647Z,19.48
2017-09-01T08:31:05.564Z,19.72
2017-09-01T08:32:15.855Z,19.85
2017-09-01T08:33:25.863Z,19.97
2017-09-01T08:34:36.159Z,20.11
2017-09-01T08:35:46.140Z,20.11
2017-09-01T08:36:56.353Z,20.29
2017-09-01T08:38:06.669Z,20.26
2017-09-01T08:39:16.949Z,20.27
2017-09-01T08:40:26.925Z,20.29
2017-09-01T08:41:36.915Z,20.19
2017-09-01T08:42:47.471Z,20.29
2017-09-01T08:43:57.447Z,20.17
2017-09-01T08:45:07.737Z,20.12
2017-09-01T08:46:18.029Z,20.27
2017-09-01T08:47:28.308Z,20.21
2017-09-01T08:48:38.855Z,20.19
2017-09-01T08:49:49.147Z,20.39
2017-09-01T08:50:59.447Z,20.66
2017-09-01T08:52:09.427Z,21
2017-09-01T08:53:19.714Z,21.14
2017-09-01T08:54:30.247Z,21.29
2017-09-01T08:55:40.243Z,21.43
2017-09-01T08:56:50.242Z,21.6
2017-09-01T08:58:00.534Z,21.69
2017-09-01T08:59:10.497Z,21.92
2017-09-01T09:00:20.717Z,22.18
2017-09-01T09:01:31.015Z,22.22
2017-09-01T09:02:40.684Z,22.33
2017-09-01T09:03:51.032Z,22.52
2017-09-01T09:05:01.363Z,22.8
2017-09-01T09:06:11.892Z,22.86
2017-09-01T09:07:22.186Z,22.47
2017-09-01T09:08:32.159Z,22.38
2017-09-01T09:09:42.151Z,22.36
2017-09-01T09:10:52.441Z,22.41
2017-09-01T09:12:03.041Z,22.59
2017-09-01T09:13:13.349Z,22.84
2017-09-01T09:14:23.646Z,22.74
2017-09-01T09:15:33.636Z,22.86
2017-09-01T09:16:43.949Z,22.47
2017-09-01T09:17:54.169Z,22.21
2017-09-01T09:19:04.139Z,22.07
2017-09-01T09:20:14.122Z,22.06
2017-09-01T09:21:24.414Z,21.94
2017-09-01T09:22:34.701Z,21.94
2017-09-01T09:23:45.232Z,22.04
2017-09-01T09:24:55.201Z,22.03
2017-09-01T09:26:05.524Z,22.1
2017-09-01T09:27:15.496Z,22.16
2017-09-01T09:28:25.453Z,22.19
2017-09-01T09:29:36.010Z,22.12
2017-09-01T09:30:45.682Z,22.16
2017-09-01T09:31:55.650Z,22.18
2017-09-01T09:33:05.304Z,22.28
2017-09-01T09:34:15.284Z,22.25
2017-09-01T09:35:25.839Z,22.25
2017-09-01T09:36:36.132Z,22.21
2017-09-01T09:37:46.413Z,22.01
2017-09-01T09:38:56.956Z,21.97
2017-09-01T09:40:07.254Z,22.14
2017-09-01T09:41:17.811Z,21.92
2017-09-01T09:42:27.795Z,21.7
2017-09-01T09:43:37.454Z,21.66
2017-09-01T09:44:47.733Z,21.85
2017-09-01T09:45:58.028Z,21.99
2017-09-01T09:47:08.571Z,21.83
2017-09-01T09:48:18.541Z,21.62
2017-09-01T09:49:28.825Z,21.58
2017-09-01T09:50:38.788Z,21.19
2017-09-01T09:51:49.088Z,21.23
2017-09-01T09:52:59.313Z,21.1
2017-09-01T09:54:09.295Z,21.07
2017-09-01T09:55:19.573Z,21.04
2017-09-01T09:56:29.877Z,21.1
2017-09-01T09:57:40.166Z,21.11
2017-09-01T09:58:50.386Z,21.32
2017-09-01T10:00:00.351Z,21.47
2017-09-01T10:01:10.340Z,21.43
2017-09-01T10:02:20.653Z,21.58
2017-09-01T10:03:30.952Z,21.47
2017-09-01T10:04:41.529Z,21.35
2017-09-01T10:05:51.521Z,21.48
2017-09-01T10:07:01.830Z,21.59
2017-09-01T10:08:12.177Z,21.66
2017-09-01T10:09:22.208Z,21.75
2017-09-01T10:10:32.177Z,22.08
2017-09-01T10:11:42.515Z,22.28
2017-09-01T10:12:52.882Z,22.3
2017-09-01T10:14:02.929Z,22.34
2017-09-01T10:15:12.257Z,22.36
2017-09-01T10:16:22.835Z,22.38
2017-09-01T10:17:32.514Z,22.55
2017-09-01T10:18:42.513Z,22.41
2017-09-01T10:19:52.802Z,22.41
2017-09-01T10:21:03.113Z,22.58
2017-09-01T10:22:13.344Z,22.36
2017-09-01T10:23:23.308Z,22.19
2017-09-01T10:24:33.600Z,21.97
2017-09-01T10:25:43.595Z,21.91
2017-09-01T10:26:53.875Z,21.68
2017-09-01T10:28:04.447Z,21.54
2017-09-01T10:29:14.756Z,21.54
2017-09-01T10:30:25.045Z,21.51
2017-09-01T10:31:35.353Z,21.5
2017-09-01T10:32:45.366Z,21.48
2017-09-01T10:33:55.595Z,21.58
2017-09-01T10:35:05.563Z,21.48
2017-09-01T10:36:15.858Z,21.56
2017-09-01T10:37:26.374Z,21.56
2017-09-01T10:38:36.878Z,21.68
2017-09-01T10:39:47.680Z,21.81
2017-09-01T10:40:57.315Z,21.85
2017-09-01T10:42:07.593Z,21.77
2017-09-01T10:43:17.861Z,21.7
2017-09-01T10:44:27.839Z,21.54
2017-09-01T10:45:38.101Z,21.6
2017-09-01T10:46:48.389Z,21.58
2017-09-01T10:47:58.664Z,21.6
2017-09-01T10:49:08.944Z,21.8
2017-09-01T10:50:18.600Z,21.8
2017-09-01T10:51:29.154Z,21.74
2017-09-01T10:52:39.460Z,21.75
2017-09-01T10:53:49.754Z,21.69
2017-09-01T10:55:00.027Z,21.6
2017-09-01T10:56:10.001Z,21.63
2017-09-01T10:57:20.249Z,21.62
2017-09-01T10:58:30.229Z,21.6
2017-09-01T10:59:40.523Z,21.54
2017-09-01T11:00:50.805Z,21.66
2017-09-01T11:02:01.104Z,21.43
2017-09-01T11:03:11.648Z,21.19
2017-09-01T11:04:21.986Z,21.05
2017-09-01T11:05:32.302Z,20.8
2017-09-01T11:06:42.577Z,20.5
2017-09-01T11:07:52.550Z,20.33
2017-09-01T11:09:03.095Z,20.19
2017-09-01T11:10:13.116Z,20.22
2017-09-01T11:11:23.111Z,20.17
2017-09-01T11:12:33.400Z,20.14
2017-09-01T11:13:43.695Z,20.11
2017-09-01T11:14:53.931Z,20.1
2017-09-01T11:16:04.200Z,19.94
2017-09-01T11:17:14.702Z,19.85
2017-09-01T11:18:24.988Z,19.66
2017-09-01T11:19:34.939Z,19.53
2017-09-01T11:20:45.391Z,19.48
2017-09-01T11:21:55.355Z,19.41
2017-09-01T11:23:05.662Z,19.38
2017-09-01T11:24:15.937Z,19.27
2017-09-01T11:25:25.570Z,19.41
2017-09-01T11:26:35.807Z,19.47
2017-09-01T11:27:45.767Z,19.44
2017-09-01T11:28:55.754Z,19.38
2017-09-01T11:30:05.724Z,19.23
2017-09-01T11:31:16.043Z,19.15
2017-09-01T11:32:26.576Z,19.16
2017-09-01T11:33:36.876Z,19.15
2017-09-01T11:34:47.157Z,19.16
2017-09-01T11:35:57.413Z,19.19
2017-09-01T11:37:07.670Z,19.23
2017-09-01T11:38:17.236Z,19.2
2017-09-01T11:39:27.529Z,19.15
2017-09-01T11:40:37.803Z,19.11
2017-09-01T11:41:47.748Z,19.05
2017-09-01T11:42:57.709Z,19.07
2017-09-01T11:44:08.248Z,18.98
2017-09-01T11:45:17.896Z,19
2017-09-01T11:46:27.878Z,19.04
2017-09-01T11:47:38.141Z,19.16
2017-09-01T11:48:48.440Z,19.05
2017-09-01T11:49:58.679Z,19.08
2017-09-01T11:51:08.368Z,19.08
2017-09-01T11:52:18.647Z,19.11
2017-09-01T11:53:28.948Z,19.16
2017-09-01T11:54:38.919Z,19.16
2017-09-01T11:55:48.800Z,19.07
2017-09-01T11:56:58.766Z,19.08
2017-09-01T11:58:09.046Z,19.08
2017-09-01T11:59:19.355Z,19.05
2017-09-01T12:00:29.620Z,19.2
2017-09-01T12:01:40.417Z,19.05
2017-09-01T12:02:50.708Z,19.08
2017-09-01T12:04:00.351Z,19.09
2017-09-01T12:05:10.614Z,19.04
2017-09-01T12:06:20.910Z,18.88
2017-09-01T12:07:31.434Z,18.86
2017-09-01T12:08:41.415Z,18.7
2017-09-01T12:09:51.387Z,18.76
2017-09-01T12:11:01.683Z,18.71
2017-09-01T12:12:11.979Z,18.88
2017-09-01T12:13:22.197Z,18.89
2017-09-01T12:14:31.839Z,18.91
2017-09-01T12:15:41.744Z,18.96
2017-09-01T12:16:51.712Z,18.88
2017-09-01T12:18:02.024Z,18.76
2017-09-01T12:19:12.559Z,18.67
2017-09-01T12:20:22.846Z,18.7
2017-09-01T12:21:33.124Z,18.76
2017-09-01T12:22:43.388Z,18.76
2017-09-01T12:23:53.689Z,18.74
2017-09-01T12:25:04.206Z,18.74
2017-09-01T12:26:14.501Z,18.67
2017-09-01T12:27:24.465Z,18.6
2017-09-01T12:28:34.109Z,18.57
2017-09-01T12:29:44.098Z,18.61
2017-09-01T12:30:54.693Z,18.61
2017-09-01T12:32:04.978Z,18.48
2017-09-01T12:33:15.268Z,18.43
2017-09-01T12:34:25.555Z,18.33
2017-09-01T12:35:35.841Z,18.42
2017-09-01T12:36:46.379Z,18.41
2017-09-01T12:37:56.642Z,18.37
2017-09-01T12:39:06.294Z,18.31
2017-09-01T12:40:16.570Z,18.37
2017-09-01T12:41:26.873Z,18.34
2017-09-01T12:42:37.409Z,18.43
2017-09-01T12:43:47.690Z,18.49
2017-09-01T12:44:57.958Z,18.49
2017-09-01T12:46:08.229Z,18.6
2017-09-01T12:47:18.192Z,18.58
2017-09-01T12:48:28.731Z,18.49
2017-09-01T12:49:38.698Z,18.36
2017-09-01T12:50:48.661Z,18.37
2017-09-01T12:51:58.626Z,18.31
2017-09-01T12:53:08.912Z,18.19
2017-09-01T12:54:19.459Z,18.23
2017-09-01T12:55:29.776Z,18.27
2017-09-01T12:56:40.111Z,18.11
2017-09-01T12:57:50.080Z,18.12
2017-09-01T12:59:00.051Z,18.12
2017-09-01T13:00:09.960Z,18.11
2017-09-01T13:01:20.237Z,18.09
2017-09-01T13:02:30.717Z,18.11
2017-09-01T13:03:40.982Z,18.06
2017-09-01T13:04:50.959Z,18.05
2017-09-01T13:06:01.494Z,18.15
2017-09-01T13:07:11.774Z,18.26
2017-09-01T13:08:21.414Z,18.13
2017-09-01T13:09:31.680Z,18.24
2017-09-01T13:10:41.964Z,18.23
2017-09-01T13:11:52.492Z,18.3
2017-09-01T13:13:02.468Z,18.23
2017-09-01T13:14:12.770Z,18.11
2017-09-01T13:15:22.755Z,17.95
2017-09-01T13:16:33.036Z,17.91
2017-09-01T13:17:43.227Z,17.8
2017-09-01T13:18:53.203Z,17.84
2017-09-01T13:20:03.169Z,17.82
2017-09-01T13:21:13.435Z,17.79
2017-09-01T13:22:23.719Z,17.79
2017-09-01T13:23:34.173Z,17.8
2017-09-01T13:24:44.129Z,17.94
2017-09-01T13:25:54.636Z,17.97
2017-09-01T13:27:04.937Z,18.16
2017-09-01T13:28:15.215Z,18.19
2017-09-01T13:29:25.759Z,18.37
2017-09-01T13:30:36.021Z,18.39
2017-09-01T13:31:45.962Z,18.39
2017-09-01T13:32:56.262Z,18.36
2017-09-01T13:34:06.213Z,18.39
2017-09-01T13:35:16.427Z,18.34
2017-09-01T13:36:26.064Z,18.36
2017-09-01T13:37:36.034Z,18.31
2017-09-01T13:38:45.987Z,18.19
2017-09-01T13:39:56.264Z,18.19
2017-09-01T13:41:06.463Z,18.16
2017-09-01T13:42:16.750Z,18.27
2017-09-01T13:43:27.028Z,18.24
2017-09-01T13:44:37.285Z,18.23
2017-09-01T13:45:47.572Z,18.23
2017-09-01T13:46:57.792Z,18.33
2017-09-01T13:48:07.752Z,18.33
2017-09-01T13:49:18.029Z,18.39
2017-09-01T13:50:28.318Z,18.36
2017-09-01T13:51:38.276Z,18.33
2017-09-01T13:52:48.825Z,18.48
2017-09-01T13:53:59.094Z,18.42
2017-09-01T13:55:09.373Z,18.48
2017-09-01T13:56:19.672Z,18.53
2017-09-01T13:57:29.951Z,18.55
2017-09-01T13:58:40.515Z,18.57
2017-09-01T13:59:50.795Z,18.68
2017-09-01T14:01:01.054Z,18.67
2017-09-01T14:02:11.334Z,18.67
2017-09-01T14:03:21.629Z,18.6
2017-09-01T14:04:31.218Z,18.58
2017-09-01T14:05:41.181Z,18.58
2017-09-01T14:06:51.477Z,18.58
2017-09-01T14:08:01.750Z,18.73
2017-09-01T14:09:12.033Z,18.66
2017-09-01T14:10:22.554Z,18.58
2017-09-01T14:11:32.843Z,18.52
2017-09-01T14:12:43.122Z,18.41
2017-09-01T14:13:52.780Z,18.34
2017-09-01T14:15:03.060Z,18.48
2017-09-01T14:16:13.595Z,18.51
2017-09-01T14:17:23.886Z,18.46
2017-09-01T14:18:34.182Z,18.34
2017-09-01T14:19:44.451Z,18.37
2017-09-01T14:20:54.411Z,18.36
2017-09-01T14:22:04.956Z,18.39
2017-09-01T14:23:14.915Z,18.36
2017-09-01T14:24:24.555Z,18.36
2017-09-01T14:25:34.873Z,18.33
2017-09-01T14:26:45.183Z,18.24
2017-09-01T14:27:55.720Z,18.34
2017-09-01T14:29:05.475Z,18.24
2017-09-01T14:30:15.734Z,18.23
2017-09-01T14:31:25.694Z,18.23
2017-09-01T14:32:35.337Z,18.09
2017-09-01T14:33:45.884Z,17.97
2017-09-01T14:34:55.214Z,18.02
2017-09-01T14:36:05.174Z,17.86
2017-09-01T14:37:15.462Z,17.82
2017-09-01T14:38:25.733Z,17.8
2017-09-01T14:39:35.946Z,17.86
2017-09-01T14:40:45.928Z,17.86
2017-09-01T14:41:56.206Z,17.82
2017-09-01T14:43:06.493Z,17.82
2017-09-01T14:44:16.504Z,17.87
2017-09-01T14:45:27.034Z,17.88
2017-09-01T14:46:37.336Z,17.91
2017-09-01T14:47:47.281Z,17.84
2017-09-01T14:48:57.243Z,17.86
2017-09-01T14:50:07.525Z,17.9
2017-09-01T14:51:18.069Z,17.84
2017-09-01T14:52:28.040Z,17.79
2017-09-01T14:53:38.329Z,17.78
2017-09-01T14:54:48.629Z,17.78
2017-09-01T14:55:58.897Z,17.82
2017-09-01T14:57:09.110Z,17.84
2017-09-01T14:58:18.778Z,17.78
2017-09-01T14:59:29.067Z,17.6
2017-09-01T15:00:39.351Z,17.69
2017-09-01T15:01:49.317Z,17.66
2017-09-01T15:02:59.840Z,17.69
2017-09-01T15:04:09.795Z,17.68
2017-09-01T15:05:19.765Z,17.68
2017-09-01T15:06:29.741Z,17.6
2017-09-01T15:07:40.025Z,17.68